sensor_id;sensor_type;location;lat;lon;timestamp;P1;durP1;ratioP1;P2;durP2;ratioP2
13743;SDS011;6943;52.368;9.966;2022-08-19T00:01:30;9.67;;;8.13;;
13743;SDS011;6943;52.368;9.966;2022-08-19T00:03:57;9.83;;;7.53;;
13743;SDS011;6943;52.368;9.966;2022-08-19T00:06:25;10.13;;;7.97;;
13743;SDS011;6943;52.368;9.966;2022-08-19T00:08:51;8.27;;;7.40;;
13743;SDS011;6943;52.368;9.966;2022-08-19T00:11:17;10.43;;;7.83;;
13743;SDS011;6943;52.368;9.966;2022-08-19T00:13:42;10.57;;;7.20;;
13743;SDS011;6943;52.368;9.966;2022-08-19T00:16:08;9.60;;;7.87;;
13743;SDS011;6943;52.368;9.966;2022-08-19T00:18:34;9.23;;;8.30;;
13743;SDS011;6943;52.368;9.966;2022-08-19T00:20:59;10.17;;;8.50;;
13743;SDS011;6943;52.368;9.966;2022-08-19T00:23:25;10.03;;;8.37;;
13743;SDS011;6943;52.368;9.966;2022-08-19T00:25:52;9.67;;;8.70;;
13743;SDS011;6943;52.368;9.966;2022-08-19T00:28:18;9.70;;;8.30;;
13743;SDS011;6943;52.368;9.966;2022-08-19T00:30:44;11.73;;;8.50;;
13743;SDS011;6943;52.368;9.966;2022-08-19T00:33:10;11.43;;;8.43;;
13743;SDS011;6943;52.368;9.966;2022-08-19T00:35:35;10.03;;;8.23;;
13743;SDS011;6943;52.368;9.966;2022-08-19T00:38:03;10.27;;;8.50;;
13743;SDS011;6943;52.368;9.966;2022-08-19T00:40:31;11.13;;;8.97;;
13743;SDS011;6943;52.368;9.966;2022-08-19T00:42:57;11.07;;;8.77;;
13743;SDS011;6943;52.368;9.966;2022-08-19T00:45:24;9.30;;;7.83;;
13743;SDS011;6943;52.368;9.966;2022-08-19T00:47:50;10.23;;;8.40;;
13743;SDS011;6943;52.368;9.966;2022-08-19T00:50:17;8.97;;;8.10;;
13743;SDS011;6943;52.368;9.966;2022-08-19T00:52:46;15.20;;;8.20;;
13743;SDS011;6943;52.368;9.966;2022-08-19T00:55:16;9.43;;;8.20;;
13743;SDS011;6943;52.368;9.966;2022-08-19T00:57:49;12.17;;;8.57;;
13743;SDS011;6943;52.368;9.966;2022-08-19T01:00:19;9.77;;;8.63;;
13743;SDS011;6943;52.368;9.966;2022-08-19T01:02:46;11.13;;;8.27;;
13743;SDS011;6943;52.368;9.966;2022-08-19T01:05:14;8.93;;;8.00;;
13743;SDS011;6943;52.368;9.966;2022-08-19T01:07:43;10.80;;;8.30;;
13743;SDS011;6943;52.368;9.966;2022-08-19T01:10:11;8.67;;;7.77;;
13743;SDS011;6943;52.368;9.966;2022-08-19T01:12:39;9.70;;;8.57;;
13743;SDS011;6943;52.368;9.966;2022-08-19T01:15:05;10.33;;;7.60;;
13743;SDS011;6943;52.368;9.966;2022-08-19T01:17:33;10.30;;;7.57;;
13743;SDS011;6943;52.368;9.966;2022-08-19T01:20:01;9.97;;;8.17;;
13743;SDS011;6943;52.368;9.966;2022-08-19T01:22:30;9.73;;;8.40;;
13743;SDS011;6943;52.368;9.966;2022-08-19T01:25:01;11.97;;;8.33;;
13743;SDS011;6943;52.368;9.966;2022-08-19T01:27:26;10.60;;;8.77;;
13743;SDS011;6943;52.368;9.966;2022-08-19T01:30:02;9.70;;;8.70;;
13743;SDS011;6943;52.368;9.966;2022-08-19T01:32:28;10.73;;;8.90;;
13743;SDS011;6943;52.368;9.966;2022-08-19T01:34:55;12.13;;;8.67;;
13743;SDS011;6943;52.368;9.966;2022-08-19T01:37:20;10.23;;;9.23;;
13743;SDS011;6943;52.368;9.966;2022-08-19T01:39:46;9.20;;;8.37;;
13743;SDS011;6943;52.368;9.966;2022-08-19T01:42:11;9.13;;;8.23;;
13743;SDS011;6943;52.368;9.966;2022-08-19T01:44:38;10.60;;;8.60;;
13743;SDS011;6943;52.368;9.966;2022-08-19T01:47:05;10.57;;;8.70;;
13743;SDS011;6943;52.368;9.966;2022-08-19T01:49:32;9.40;;;8.50;;
13743;SDS011;6943;52.368;9.966;2022-08-19T01:51:58;9.57;;;8.63;;
13743;SDS011;6943;52.368;9.966;2022-08-19T01:54:25;9.03;;;8.13;;
13743;SDS011;6943;52.368;9.966;2022-08-19T01:56:51;9.57;;;8.67;;
13743;SDS011;6943;52.368;9.966;2022-08-19T01:59:19;11.43;;;8.73;;
13743;SDS011;6943;52.368;9.966;2022-08-19T02:01:46;8.90;;;7.60;;
13743;SDS011;6943;52.368;9.966;2022-08-19T02:04:12;9.27;;;8.30;;
13743;SDS011;6943;52.368;9.966;2022-08-19T02:06:38;9.77;;;8.53;;
13743;SDS011;6943;52.368;9.966;2022-08-19T02:09:05;11.67;;;8.60;;
13743;SDS011;6943;52.368;9.966;2022-08-19T02:11:32;9.13;;;8.20;;
13743;SDS011;6943;52.368;9.966;2022-08-19T02:13:59;10.33;;;8.73;;
13743;SDS011;6943;52.368;9.966;2022-08-19T02:16:27;11.20;;;8.77;;
13743;SDS011;6943;52.368;9.966;2022-08-19T02:18:53;9.80;;;8.80;;
13743;SDS011;6943;52.368;9.966;2022-08-19T02:21:20;9.43;;;8.00;;
13743;SDS011;6943;52.368;9.966;2022-08-19T02:23:48;9.27;;;7.53;;
13743;SDS011;6943;52.368;9.966;2022-08-19T02:26:14;12.63;;;9.00;;
13743;SDS011;6943;52.368;9.966;2022-08-19T02:28:41;8.83;;;7.93;;
13743;SDS011;6943;52.368;9.966;2022-08-19T02:31:14;8.90;;;8.00;;
13743;SDS011;6943;52.368;9.966;2022-08-19T02:33:42;10.13;;;7.57;;
13743;SDS011;6943;52.368;9.966;2022-08-19T02:36:08;8.67;;;7.77;;
13743;SDS011;6943;52.368;9.966;2022-08-19T02:38:34;12.00;;;8.67;;
13743;SDS011;6943;52.368;9.966;2022-08-19T02:41:03;9.33;;;8.40;;
13743;SDS011;6943;52.368;9.966;2022-08-19T02:43:31;10.50;;;8.50;;
13743;SDS011;6943;52.368;9.966;2022-08-19T02:46:00;11.43;;;9.30;;
13743;SDS011;6943;52.368;9.966;2022-08-19T02:48:27;11.10;;;9.23;;
13743;SDS011;6943;52.368;9.966;2022-08-19T02:50:52;11.50;;;9.20;;
13743;SDS011;6943;52.368;9.966;2022-08-19T02:53:22;9.97;;;8.40;;
13743;SDS011;6943;52.368;9.966;2022-08-19T02:55:49;12.93;;;9.30;;
13743;SDS011;6943;52.368;9.966;2022-08-19T02:58:16;9.63;;;8.40;;
13743;SDS011;6943;52.368;9.966;2022-08-19T03:00:45;10.70;;;9.03;;
13743;SDS011;6943;52.368;9.966;2022-08-19T03:03:14;9.97;;;8.97;;
13743;SDS011;6943;52.368;9.966;2022-08-19T03:05:40;12.70;;;8.70;;
13743;SDS011;6943;52.368;9.966;2022-08-19T03:08:07;10.67;;;9.63;;
13743;SDS011;6943;52.368;9.966;2022-08-19T03:10:43;11.37;;;8.87;;
13743;SDS011;6943;52.368;9.966;2022-08-19T03:13:12;10.40;;;9.27;;
13743;SDS011;6943;52.368;9.966;2022-08-19T03:15:41;12.20;;;10.00;;
13743;SDS011;6943;52.368;9.966;2022-08-19T03:18:08;10.97;;;9.40;;
13743;SDS011;6943;52.368;9.966;2022-08-19T03:20:33;10.40;;;9.30;;
13743;SDS011;6943;52.368;9.966;2022-08-19T03:22:59;10.47;;;8.93;;
13743;SDS011;6943;52.368;9.966;2022-08-19T03:25:24;12.47;;;9.43;;
13743;SDS011;6943;52.368;9.966;2022-08-19T03:27:50;11.37;;;9.57;;
13743;SDS011;6943;52.368;9.966;2022-08-19T03:30:15;10.30;;;9.37;;
13743;SDS011;6943;52.368;9.966;2022-08-19T03:32:41;9.60;;;8.60;;
13743;SDS011;6943;52.368;9.966;2022-08-19T03:35:06;11.50;;;9.13;;
13743;SDS011;6943;52.368;9.966;2022-08-19T03:37:32;13.20;;;9.80;;
13743;SDS011;6943;52.368;9.966;2022-08-19T03:39:59;10.73;;;9.50;;
13743;SDS011;6943;52.368;9.966;2022-08-19T03:42:25;12.03;;;9.43;;
13743;SDS011;6943;52.368;9.966;2022-08-19T03:44:51;11.53;;;9.40;;
13743;SDS011;6943;52.368;9.966;2022-08-19T03:47:17;13.17;;;9.67;;
13743;SDS011;6943;52.368;9.966;2022-08-19T03:49:43;10.27;;;9.27;;
13743;SDS011;6943;52.368;9.966;2022-08-19T03:52:09;11.20;;;9.37;;
13743;SDS011;6943;52.368;9.966;2022-08-19T03:54:35;11.07;;;9.53;;
13743;SDS011;6943;52.368;9.966;2022-08-19T03:57:00;10.87;;;8.53;;
13743;SDS011;6943;52.368;9.966;2022-08-19T03:59:31;10.60;;;9.27;;
13743;SDS011;6943;52.368;9.966;2022-08-19T04:01:59;10.97;;;8.57;;
13743;SDS011;6943;52.368;9.966;2022-08-19T04:04:26;10.60;;;8.80;;
13743;SDS011;6943;52.368;9.966;2022-08-19T04:06:52;9.87;;;8.57;;
13743;SDS011;6943;52.368;9.966;2022-08-19T04:09:18;10.30;;;8.43;;
13743;SDS011;6943;52.368;9.966;2022-08-19T04:11:45;10.03;;;9.03;;
13743;SDS011;6943;52.368;9.966;2022-08-19T04:14:14;8.63;;;7.77;;
13743;SDS011;6943;52.368;9.966;2022-08-19T04:16:43;11.43;;;10.13;;
13743;SDS011;6943;52.368;9.966;2022-08-19T04:19:09;9.90;;;8.90;;
13743;SDS011;6943;52.368;9.966;2022-08-19T04:21:35;10.07;;;9.00;;
13743;SDS011;6943;52.368;9.966;2022-08-19T04:24:01;11.47;;;8.60;;
13743;SDS011;6943;52.368;9.966;2022-08-19T04:26:29;9.50;;;8.57;;
13743;SDS011;6943;52.368;9.966;2022-08-19T04:29:00;9.93;;;8.20;;
13743;SDS011;6943;52.368;9.966;2022-08-19T04:31:28;9.60;;;8.30;;
13743;SDS011;6943;52.368;9.966;2022-08-19T04:33:55;10.57;;;9.03;;
13743;SDS011;6943;52.368;9.966;2022-08-19T04:36:24;10.17;;;8.33;;
13743;SDS011;6943;52.368;9.966;2022-08-19T04:38:53;10.37;;;8.53;;
13743;SDS011;6943;52.368;9.966;2022-08-19T04:41:20;10.63;;;8.30;;
13743;SDS011;6943;52.368;9.966;2022-08-19T04:44:04;8.70;;;7.83;;
13743;SDS011;6943;52.368;9.966;2022-08-19T04:46:30;11.50;;;8.07;;
13743;SDS011;6943;52.368;9.966;2022-08-19T04:48:57;9.30;;;7.93;;
13743;SDS011;6943;52.368;9.966;2022-08-19T04:51:24;7.90;;;7.20;;
13743;SDS011;6943;52.368;9.966;2022-08-19T04:53:49;7.70;;;7.00;;
13743;SDS011;6943;52.368;9.966;2022-08-19T04:56:16;9.87;;;7.80;;
13743;SDS011;6943;52.368;9.966;2022-08-19T04:58:44;9.90;;;7.57;;
13743;SDS011;6943;52.368;9.966;2022-08-19T05:01:14;7.63;;;6.83;;
13743;SDS011;6943;52.368;9.966;2022-08-19T05:03:42;9.40;;;7.70;;
13743;SDS011;6943;52.368;9.966;2022-08-19T05:06:10;8.30;;;6.70;;
13743;SDS011;6943;52.368;9.966;2022-08-19T05:08:37;8.53;;;7.33;;
13743;SDS011;6943;52.368;9.966;2022-08-19T05:14:03;10.10;;;7.13;;
13743;SDS011;6943;52.368;9.966;2022-08-19T05:16:30;9.50;;;7.30;;
13743;SDS011;6943;52.368;9.966;2022-08-19T05:18:55;7.93;;;7.10;;
13743;SDS011;6943;52.368;9.966;2022-08-19T05:21:40;9.27;;;7.53;;
13743;SDS011;6943;52.368;9.966;2022-08-19T05:24:25;9.17;;;7.40;;
13743;SDS011;6943;52.368;9.966;2022-08-19T05:26:52;8.77;;;7.60;;
13743;SDS011;6943;52.368;9.966;2022-08-19T05:29:21;10.17;;;7.47;;
13743;SDS011;6943;52.368;9.966;2022-08-19T05:31:48;8.77;;;7.43;;
13743;SDS011;6943;52.368;9.966;2022-08-19T05:34:15;7.73;;;7.03;;
13743;SDS011;6943;52.368;9.966;2022-08-19T05:36:42;10.07;;;7.57;;
13743;SDS011;6943;52.368;9.966;2022-08-19T05:39:10;8.73;;;7.80;;
13743;SDS011;6943;52.368;9.966;2022-08-19T05:41:44;8.40;;;7.40;;
13743;SDS011;6943;52.368;9.966;2022-08-19T05:44:12;8.43;;;7.20;;
13743;SDS011;6943;52.368;9.966;2022-08-19T05:46:39;9.07;;;8.17;;
13743;SDS011;6943;52.368;9.966;2022-08-19T05:49:07;8.17;;;7.43;;
13743;SDS011;6943;52.368;9.966;2022-08-19T05:51:34;9.50;;;7.87;;
13743;SDS011;6943;52.368;9.966;2022-08-19T05:54:02;8.13;;;6.77;;
13743;SDS011;6943;52.368;9.966;2022-08-19T05:56:29;7.97;;;7.20;;
13743;SDS011;6943;52.368;9.966;2022-08-19T05:58:55;8.90;;;6.87;;
13743;SDS011;6943;52.368;9.966;2022-08-19T06:01:21;7.67;;;6.87;;
13743;SDS011;6943;52.368;9.966;2022-08-19T06:03:47;8.57;;;6.90;;
13743;SDS011;6943;52.368;9.966;2022-08-19T06:06:13;8.00;;;7.20;;
13743;SDS011;6943;52.368;9.966;2022-08-19T06:08:40;7.70;;;6.90;;
13743;SDS011;6943;52.368;9.966;2022-08-19T06:11:11;8.93;;;6.63;;
13743;SDS011;6943;52.368;9.966;2022-08-19T06:13:43;7.33;;;6.63;;
13743;SDS011;6943;52.368;9.966;2022-08-19T06:16:14;8.23;;;6.67;;
13743;SDS011;6943;52.368;9.966;2022-08-19T06:18:45;7.40;;;6.40;;
13743;SDS011;6943;52.368;9.966;2022-08-19T06:21:11;8.27;;;6.50;;
13743;SDS011;6943;52.368;9.966;2022-08-19T06:23:36;7.47;;;5.73;;
13743;SDS011;6943;52.368;9.966;2022-08-19T06:26:02;7.37;;;6.13;;
13743;SDS011;6943;52.368;9.966;2022-08-19T06:28:27;6.53;;;5.93;;
13743;SDS011;6943;52.368;9.966;2022-08-19T06:30:53;8.10;;;6.10;;
13743;SDS011;6943;52.368;9.966;2022-08-19T06:33:18;7.50;;;6.07;;
13743;SDS011;6943;52.368;9.966;2022-08-19T06:35:44;9.47;;;6.80;;
13743;SDS011;6943;52.368;9.966;2022-08-19T06:38:09;6.83;;;6.00;;
13743;SDS011;6943;52.368;9.966;2022-08-19T06:40:35;7.40;;;6.20;;
13743;SDS011;6943;52.368;9.966;2022-08-19T06:43:02;6.60;;;6.00;;
13743;SDS011;6943;52.368;9.966;2022-08-19T06:45:28;7.67;;;6.07;;
13743;SDS011;6943;52.368;9.966;2022-08-19T06:47:53;7.90;;;6.23;;
13743;SDS011;6943;52.368;9.966;2022-08-19T06:50:20;7.03;;;5.97;;
13743;SDS011;6943;52.368;9.966;2022-08-19T06:52:49;6.23;;;5.63;;
13743;SDS011;6943;52.368;9.966;2022-08-19T06:55:15;6.57;;;5.47;;
13743;SDS011;6943;52.368;9.966;2022-08-19T06:57:40;8.30;;;5.77;;
13743;SDS011;6943;52.368;9.966;2022-08-19T07:00:07;5.30;;;4.73;;
13743;SDS011;6943;52.368;9.966;2022-08-19T07:02:41;9.17;;;6.03;;
13743;SDS011;6943;52.368;9.966;2022-08-19T07:05:07;6.83;;;6.07;;
13743;SDS011;6943;52.368;9.966;2022-08-19T07:07:33;7.37;;;5.90;;
13743;SDS011;6943;52.368;9.966;2022-08-19T07:09:59;6.70;;;6.03;;
13743;SDS011;6943;52.368;9.966;2022-08-19T07:12:25;7.23;;;5.93;;
13743;SDS011;6943;52.368;9.966;2022-08-19T07:14:53;7.90;;;5.83;;
13743;SDS011;6943;52.368;9.966;2022-08-19T07:17:19;6.33;;;5.80;;
13743;SDS011;6943;52.368;9.966;2022-08-19T07:19:45;7.80;;;6.30;;
13743;SDS011;6943;52.368;9.966;2022-08-19T07:22:10;8.20;;;6.37;;
13743;SDS011;6943;52.368;9.966;2022-08-19T07:24:36;8.63;;;6.67;;
13743;SDS011;6943;52.368;9.966;2022-08-19T07:27:03;8.53;;;6.50;;
13743;SDS011;6943;52.368;9.966;2022-08-19T07:29:31;6.83;;;5.90;;
13743;SDS011;6943;52.368;9.966;2022-08-19T07:31:58;7.47;;;6.23;;
13743;SDS011;6943;52.368;9.966;2022-08-19T07:34:25;7.90;;;6.30;;
13743;SDS011;6943;52.368;9.966;2022-08-19T07:36:52;6.00;;;5.43;;
13743;SDS011;6943;52.368;9.966;2022-08-19T07:39:20;8.10;;;5.97;;
13743;SDS011;6943;52.368;9.966;2022-08-19T07:41:48;7.30;;;5.57;;
13743;SDS011;6943;52.368;9.966;2022-08-19T07:44:15;8.87;;;6.30;;
13743;SDS011;6943;52.368;9.966;2022-08-19T07:46:43;10.33;;;6.30;;
13743;SDS011;6943;52.368;9.966;2022-08-19T07:49:11;5.80;;;5.30;;
13743;SDS011;6943;52.368;9.966;2022-08-19T07:51:42;6.40;;;5.80;;
13743;SDS011;6943;52.368;9.966;2022-08-19T07:54:08;6.00;;;5.50;;
13743;SDS011;6943;52.368;9.966;2022-08-19T07:56:34;6.82;;;5.05;;
13743;SDS011;6943;52.368;9.966;2022-08-19T07:59:00;6.57;;;5.53;;
13743;SDS011;6943;52.368;9.966;2022-08-19T08:01:26;8.40;;;5.60;;
13743;SDS011;6943;52.368;9.966;2022-08-19T08:03:53;6.37;;;5.67;;
13743;SDS011;6943;52.368;9.966;2022-08-19T08:06:38;7.43;;;5.40;;
13743;SDS011;6943;52.368;9.966;2022-08-19T08:09:23;5.73;;;5.13;;
13743;SDS011;6943;52.368;9.966;2022-08-19T08:14:53;5.67;;;5.07;;
13743;SDS011;6943;52.368;9.966;2022-08-19T08:17:22;7.43;;;6.40;;
13743;SDS011;6943;52.368;9.966;2022-08-19T08:19:50;9.23;;;8.27;;
13743;SDS011;6943;52.368;9.966;2022-08-19T08:22:17;7.37;;;6.67;;
13743;SDS011;6943;52.368;9.966;2022-08-19T08:25:08;7.37;;;6.37;;
13743;SDS011;6943;52.368;9.966;2022-08-19T08:27:37;7.00;;;6.30;;
13743;SDS011;6943;52.368;9.966;2022-08-19T08:30:05;7.43;;;6.60;;
13743;SDS011;6943;52.368;9.966;2022-08-19T08:32:34;6.57;;;5.90;;
13743;SDS011;6943;52.368;9.966;2022-08-19T08:35:00;6.73;;;5.97;;
13743;SDS011;6943;52.368;9.966;2022-08-19T08:37:26;6.75;;;6.15;;
13743;SDS011;6943;52.368;9.966;2022-08-19T08:39:51;6.60;;;6.00;;
13743;SDS011;6943;52.368;9.966;2022-08-19T08:42:19;6.45;;;5.95;;
13743;SDS011;6943;52.368;9.966;2022-08-19T08:47:23;5.97;;;5.47;;
13743;SDS011;6943;52.368;9.966;2022-08-19T08:49:54;5.43;;;4.85;;
13743;SDS011;6943;52.368;9.966;2022-08-19T08:52:28;5.30;;;4.90;;
13743;SDS011;6943;52.368;9.966;2022-08-19T08:55:00;5.93;;;5.43;;
13743;SDS011;6943;52.368;9.966;2022-08-19T09:00:05;7.07;;;5.72;;
13743;SDS011;6943;52.368;9.966;2022-08-19T09:02:35;6.40;;;5.88;;
13743;SDS011;6943;52.368;9.966;2022-08-19T09:05:01;6.80;;;6.13;;
13743;SDS011;6943;52.368;9.966;2022-08-19T09:07:41;7.60;;;6.43;;
13743;SDS011;6943;52.368;9.966;2022-08-19T09:10:21;7.13;;;6.43;;
13743;SDS011;6943;52.368;9.966;2022-08-19T09:15:51;7.57;;;6.88;;
13743;SDS011;6943;52.368;9.966;2022-08-19T09:18:22;5.88;;;5.35;;
13743;SDS011;6943;52.368;9.966;2022-08-19T09:20:47;6.05;;;5.45;;
13743;SDS011;6943;52.368;9.966;2022-08-19T09:23:13;9.57;;;6.45;;
13743;SDS011;6943;52.368;9.966;2022-08-19T09:25:39;6.70;;;6.03;;
13743;SDS011;6943;52.368;9.966;2022-08-19T09:28:05;6.50;;;5.63;;
13743;SDS011;6943;52.368;9.966;2022-08-19T09:30:32;5.97;;;5.38;;
13743;SDS011;6943;52.368;9.966;2022-08-19T09:32:59;5.18;;;4.68;;
13743;SDS011;6943;52.368;9.966;2022-08-19T09:35:27;6.57;;;5.53;;
13743;SDS011;6943;52.368;9.966;2022-08-19T09:37:54;5.45;;;5.05;;
13743;SDS011;6943;52.368;9.966;2022-08-19T09:40:21;5.57;;;5.10;;
13743;SDS011;6943;52.368;9.966;2022-08-19T09:42:47;6.15;;;5.15;;
13743;SDS011;6943;52.368;9.966;2022-08-19T09:45:13;5.85;;;5.18;;
13743;SDS011;6943;52.368;9.966;2022-08-19T09:47:40;6.38;;;5.22;;
13743;SDS011;6943;52.368;9.966;2022-08-19T09:50:07;6.00;;;5.45;;
13743;SDS011;6943;52.368;9.966;2022-08-19T09:52:34;5.88;;;5.35;;
13743;SDS011;6943;52.368;9.966;2022-08-19T09:55:02;6.28;;;5.47;;
13743;SDS011;6943;52.368;9.966;2022-08-19T09:57:28;6.25;;;5.65;;
13743;SDS011;6943;52.368;9.966;2022-08-19T09:59:54;6.70;;;5.43;;
13743;SDS011;6943;52.368;9.966;2022-08-19T10:02:19;5.80;;;5.30;;
13743;SDS011;6943;52.368;9.966;2022-08-19T10:04:45;5.78;;;5.20;;
13743;SDS011;6943;52.368;9.966;2022-08-19T10:07:29;6.60;;;5.90;;
13743;SDS011;6943;52.368;9.966;2022-08-19T10:09:55;6.15;;;5.65;;
13743;SDS011;6943;52.368;9.966;2022-08-19T10:12:21;6.07;;;5.57;;
13743;SDS011;6943;52.368;9.966;2022-08-19T10:14:47;6.70;;;6.10;;
13743;SDS011;6943;52.368;9.966;2022-08-19T10:17:12;6.32;;;5.82;;
13743;SDS011;6943;52.368;9.966;2022-08-19T10:19:38;6.15;;;5.30;;
13743;SDS011;6943;52.368;9.966;2022-08-19T10:22:06;7.85;;;6.18;;
13743;SDS011;6943;52.368;9.966;2022-08-19T10:24:32;7.45;;;6.00;;
13743;SDS011;6943;52.368;9.966;2022-08-19T10:26:59;7.88;;;7.18;;
13743;SDS011;6943;52.368;9.966;2022-08-19T10:29:28;7.88;;;7.10;;
13743;SDS011;6943;52.368;9.966;2022-08-19T10:31:54;7.57;;;6.88;;
13743;SDS011;6943;52.368;9.966;2022-08-19T10:34:20;8.27;;;6.30;;
13743;SDS011;6943;52.368;9.966;2022-08-19T10:36:46;8.18;;;7.38;;
13743;SDS011;6943;52.368;9.966;2022-08-19T10:39:12;7.85;;;6.70;;
13743;SDS011;6943;52.368;9.966;2022-08-19T10:41:38;7.60;;;6.85;;
13743;SDS011;6943;52.368;9.966;2022-08-19T10:44:08;7.55;;;6.22;;
13743;SDS011;6943;52.368;9.966;2022-08-19T10:46:37;7.80;;;7.10;;
13743;SDS011;6943;52.368;9.966;2022-08-19T10:49:06;6.70;;;6.18;;
13743;SDS011;6943;52.368;9.966;2022-08-19T10:51:32;7.47;;;6.45;;
13743;SDS011;6943;52.368;9.966;2022-08-19T10:54:16;7.68;;;6.07;;
13743;SDS011;6943;52.368;9.966;2022-08-19T10:56:43;7.13;;;6.50;;
13743;SDS011;6943;52.368;9.966;2022-08-19T10:59:24;7.18;;;6.43;;
13743;SDS011;6943;52.368;9.966;2022-08-19T11:01:52;6.55;;;6.00;;
13743;SDS011;6943;52.368;9.966;2022-08-19T11:04:19;6.78;;;6.18;;
13743;SDS011;6943;52.368;9.966;2022-08-19T11:06:46;8.57;;;6.75;;
13743;SDS011;6943;52.368;9.966;2022-08-19T11:09:23;7.40;;;6.40;;
13743;SDS011;6943;52.368;9.966;2022-08-19T11:11:50;7.60;;;6.90;;
13743;SDS011;6943;52.368;9.966;2022-08-19T11:14:18;6.03;;;5.53;;
13743;SDS011;6943;52.368;9.966;2022-08-19T11:16:45;6.50;;;5.90;;
13743;SDS011;6943;52.368;9.966;2022-08-19T11:19:12;5.65;;;5.03;;
13743;SDS011;6943;52.368;9.966;2022-08-19T11:21:41;6.68;;;6.07;;
13743;SDS011;6943;52.368;9.966;2022-08-19T11:24:10;6.30;;;5.80;;
13743;SDS011;6943;52.368;9.966;2022-08-19T11:26:38;5.50;;;4.95;;
13743;SDS011;6943;52.368;9.966;2022-08-19T11:29:05;6.28;;;5.45;;
13743;SDS011;6943;52.368;9.966;2022-08-19T11:31:36;5.45;;;4.95;;
13743;SDS011;6943;52.368;9.966;2022-08-19T11:34:04;5.45;;;4.90;;
13743;SDS011;6943;52.368;9.966;2022-08-19T11:36:31;6.45;;;5.85;;
13743;SDS011;6943;52.368;9.966;2022-08-19T11:38:57;6.30;;;5.70;;
13743;SDS011;6943;52.368;9.966;2022-08-19T11:41:23;7.93;;;6.65;;
13743;SDS011;6943;52.368;9.966;2022-08-19T11:43:50;8.80;;;6.13;;
13743;SDS011;6943;52.368;9.966;2022-08-19T11:46:17;5.50;;;5.00;;
13743;SDS011;6943;52.368;9.966;2022-08-19T11:48:43;6.03;;;5.43;;
13743;SDS011;6943;52.368;9.966;2022-08-19T11:51:10;6.40;;;5.75;;
13743;SDS011;6943;52.368;9.966;2022-08-19T11:53:39;5.90;;;5.30;;
13743;SDS011;6943;52.368;9.966;2022-08-19T11:56:05;5.90;;;5.30;;
13743;SDS011;6943;52.368;9.966;2022-08-19T11:58:31;5.82;;;5.22;;
13743;SDS011;6943;52.368;9.966;2022-08-19T12:00:57;5.85;;;5.05;;
13743;SDS011;6943;52.368;9.966;2022-08-19T12:03:23;4.00;;;3.60;;
13743;SDS011;6943;52.368;9.966;2022-08-19T12:05:49;4.28;;;3.90;;
13743;SDS011;6943;52.368;9.966;2022-08-19T12:08:15;4.93;;;4.40;;
13743;SDS011;6943;52.368;9.966;2022-08-19T12:10:41;4.57;;;4.18;;
13743;SDS011;6943;52.368;9.966;2022-08-19T12:13:08;4.72;;;4.30;;
13743;SDS011;6943;52.368;9.966;2022-08-19T12:15:38;6.20;;;3.75;;
13743;SDS011;6943;52.368;9.966;2022-08-19T12:18:08;4.90;;;4.20;;
13743;SDS011;6943;52.368;9.966;2022-08-19T12:20:37;5.03;;;4.22;;
13743;SDS011;6943;52.368;9.966;2022-08-19T12:23:04;5.75;;;4.40;;
13743;SDS011;6943;52.368;9.966;2022-08-19T12:25:31;4.88;;;4.28;;
13743;SDS011;6943;52.368;9.966;2022-08-19T12:27:57;5.25;;;4.72;;
13743;SDS011;6943;52.368;9.966;2022-08-19T12:30:23;4.80;;;4.35;;
13743;SDS011;6943;52.368;9.966;2022-08-19T12:32:49;4.57;;;4.13;;
13743;SDS011;6943;52.368;9.966;2022-08-19T12:35:16;4.07;;;3.78;;
13743;SDS011;6943;52.368;9.966;2022-08-19T12:37:44;5.55;;;5.05;;
13743;SDS011;6943;52.368;9.966;2022-08-19T12:40:12;5.13;;;4.22;;
13743;SDS011;6943;52.368;9.966;2022-08-19T12:42:38;4.15;;;3.75;;
13743;SDS011;6943;52.368;9.966;2022-08-19T12:45:09;3.83;;;3.45;;
13743;SDS011;6943;52.368;9.966;2022-08-19T12:47:39;3.80;;;3.50;;
13743;SDS011;6943;52.368;9.966;2022-08-19T12:50:05;4.57;;;3.65;;
13743;SDS011;6943;52.368;9.966;2022-08-19T12:52:33;4.22;;;3.60;;
13743;SDS011;6943;52.368;9.966;2022-08-19T12:55:01;3.63;;;3.33;;
13743;SDS011;6943;52.368;9.966;2022-08-19T12:57:27;3.63;;;3.33;;
13743;SDS011;6943;52.368;9.966;2022-08-19T12:59:53;4.28;;;3.50;;
13743;SDS011;6943;52.368;9.966;2022-08-19T13:02:18;5.22;;;3.40;;
13743;SDS011;6943;52.368;9.966;2022-08-19T13:04:44;4.18;;;3.55;;
13743;SDS011;6943;52.368;9.966;2022-08-19T13:07:10;4.57;;;3.40;;
13743;SDS011;6943;52.368;9.966;2022-08-19T13:09:36;5.63;;;3.45;;
13743;SDS011;6943;52.368;9.966;2022-08-19T13:12:02;3.50;;;3.20;;
13743;SDS011;6943;52.368;9.966;2022-08-19T13:14:32;3.85;;;3.33;;
13743;SDS011;6943;52.368;9.966;2022-08-19T13:16:59;2.95;;;2.75;;
13743;SDS011;6943;52.368;9.966;2022-08-19T13:19:24;3.13;;;2.80;;
13743;SDS011;6943;52.368;9.966;2022-08-19T13:21:51;4.18;;;3.08;;
13743;SDS011;6943;52.368;9.966;2022-08-19T13:24:18;3.30;;;3.00;;
13743;SDS011;6943;52.368;9.966;2022-08-19T13:26:44;3.30;;;3.00;;
13743;SDS011;6943;52.368;9.966;2022-08-19T13:29:09;4.07;;;3.05;;
13743;SDS011;6943;52.368;9.966;2022-08-19T13:31:53;3.35;;;2.80;;
13743;SDS011;6943;52.368;9.966;2022-08-19T13:34:37;3.13;;;2.90;;
13743;SDS011;6943;52.368;9.966;2022-08-19T13:37:04;2.83;;;2.63;;
13743;SDS011;6943;52.368;9.966;2022-08-19T13:39:30;3.08;;;2.72;;
13743;SDS011;6943;52.368;9.966;2022-08-19T13:41:57;3.03;;;2.80;;
13743;SDS011;6943;52.368;9.966;2022-08-19T13:44:24;2.72;;;2.50;;
13743;SDS011;6943;52.368;9.966;2022-08-19T13:46:50;2.88;;;2.67;;
13743;SDS011;6943;52.368;9.966;2022-08-19T13:49:18;3.05;;;2.75;;
13743;SDS011;6943;52.368;9.966;2022-08-19T13:51:45;3.38;;;2.55;;
13743;SDS011;6943;52.368;9.966;2022-08-19T13:54:11;4.10;;;2.90;;
13743;SDS011;6943;52.368;9.966;2022-08-19T13:56:41;3.67;;;3.38;;
13743;SDS011;6943;52.368;9.966;2022-08-19T13:59:09;3.08;;;2.88;;
13743;SDS011;6943;52.368;9.966;2022-08-19T14:01:35;3.38;;;3.00;;
13743;SDS011;6943;52.368;9.966;2022-08-19T14:04:01;3.50;;;3.15;;
13743;SDS011;6943;52.368;9.966;2022-08-19T14:06:27;3.45;;;3.15;;
13743;SDS011;6943;52.368;9.966;2022-08-19T14:08:52;3.25;;;2.95;;
13743;SDS011;6943;52.368;9.966;2022-08-19T14:11:18;3.20;;;3.00;;
13743;SDS011;6943;52.368;9.966;2022-08-19T14:13:43;3.38;;;3.15;;
13743;SDS011;6943;52.368;9.966;2022-08-19T14:16:11;3.10;;;2.80;;
13743;SDS011;6943;52.368;9.966;2022-08-19T14:18:38;3.22;;;2.92;;
13743;SDS011;6943;52.368;9.966;2022-08-19T14:21:04;3.10;;;2.80;;
13743;SDS011;6943;52.368;9.966;2022-08-19T14:23:31;2.97;;;2.72;;
13743;SDS011;6943;52.368;9.966;2022-08-19T14:26:15;2.60;;;2.40;;
13743;SDS011;6943;52.368;9.966;2022-08-19T14:28:43;2.97;;;2.63;;
13743;SDS011;6943;52.368;9.966;2022-08-19T14:31:10;3.05;;;2.65;;
13743;SDS011;6943;52.368;9.966;2022-08-19T14:33:37;2.97;;;2.50;;
13743;SDS011;6943;52.368;9.966;2022-08-19T14:36:03;2.97;;;2.30;;
13743;SDS011;6943;52.368;9.966;2022-08-19T14:38:29;3.10;;;2.80;;
13743;SDS011;6943;52.368;9.966;2022-08-19T14:40:56;2.72;;;2.53;;
13743;SDS011;6943;52.368;9.966;2022-08-19T14:43:31;2.65;;;2.45;;
13743;SDS011;6943;52.368;9.966;2022-08-19T14:45:56;2.67;;;2.47;;
13743;SDS011;6943;52.368;9.966;2022-08-19T14:48:22;3.00;;;2.80;;
13743;SDS011;6943;52.368;9.966;2022-08-19T14:50:47;5.47;;;2.72;;
13743;SDS011;6943;52.368;9.966;2022-08-19T14:53:13;2.83;;;2.38;;
13743;SDS011;6943;52.368;9.966;2022-08-19T14:55:41;2.70;;;2.50;;
13743;SDS011;6943;52.368;9.966;2022-08-19T14:58:07;4.20;;;2.40;;
13743;SDS011;6943;52.368;9.966;2022-08-19T15:00:33;2.70;;;2.50;;
13743;SDS011;6943;52.368;9.966;2022-08-19T15:02:59;2.78;;;2.47;;
13743;SDS011;6943;52.368;9.966;2022-08-19T15:05:24;3.95;;;2.53;;
13743;SDS011;6943;52.368;9.966;2022-08-19T15:07:51;3.35;;;2.22;;
13743;SDS011;6943;52.368;9.966;2022-08-19T15:10:19;2.50;;;2.00;;
13743;SDS011;6943;52.368;9.966;2022-08-19T15:12:44;2.70;;;2.50;;
13743;SDS011;6943;52.368;9.966;2022-08-19T15:15:11;2.22;;;2.03;;